Time;durP1;ratioP1;P1;durP2;ratioP2;P2;SDS_P1;SDS_P2;PMS_P1;PMS_P2;Temp;Humidity;BMP_temperature;BMP_pressure;BME280_temperature;BME280_humidity;BME280_pressure;Samples;Min_cycle;Max_cycle;Signal;HPM_P1;HPM_P2
2022/01/26 00:06:38;;;;;;;9.55;1.85;;;26.60;60.70;;;;;;4161720;28;20033;-69
2022/01/26 00:09:01;;;;;;;4.40;1.80;;;26.60;60.50;;;;;;4161092;28;20072;-69
2022/01/26 00:11:24;;;;;;;7.38;1.90;;;26.60;60.80;;;;;;4160587;28;20049;-69
2022/01/26 00:13:47;;;;;;;8.13;2.03;;;26.60;60.60;;;;;;4160267;28;21225;-71
2022/01/26 00:16:19;;;;;;;6.25;1.63;;;26.60;61.20;;;;;;4156949;28;20044;-70
2022/01/26 00:18:41;;;;;;;6.07;1.50;;;26.60;61.30;;;;;;4160026;28;20053;-69
2022/01/26 00:21:09;;;;;;;3.08;1.30;;;26.70;60.80;;;;;;4160235;28;20424;-71
2022/01/26 00:26:06;;;;;;;3.38;1.55;;;26.70;60.70;;;;;;4160944;28;20041;-69
2022/01/26 00:38:39;;;;;;;5.22;1.65;;;26.70;61.20;;;;;;4150902;28;20038;-70
2022/01/26 00:41:05;;;;;;;3.80;1.50;;;26.70;61.20;;;;;;4155433;28;20045;-70
2022/01/26 00:43:27;;;;;;;3.88;1.55;;;26.70;61.00;;;;;;4158054;28;20055;-70
2022/01/26 00:45:55;;;;;;;4.47;1.70;;;26.70;62.00;;;;;;4158163;28;20124;-70
2022/01/26 00:48:20;;;;;;;4.00;1.33;;;26.70;61.80;;;;;;4153436;28;20116;-69
2022/01/26 00:50:49;;;;;;;1.88;1.23;;;26.70;60.80;;;;;;4156378;28;20056;-71
2022/01/26 00:53:12;;;;;;;2.58;1.20;;;26.70;60.40;;;;;;4158727;28;20041;-70
2022/01/26 00:55:34;;;;;;;2.80;1.25;;;26.70;60.40;;;;;;4155319;28;20127;-70
2022/01/26 00:57:57;;;;;;;5.28;1.52;;;26.70;60.60;;;;;;4153072;28;20083;-71
2022/01/26 01:00:24;;;;;;;2.60;1.45;;;26.70;59.80;;;;;;4159037;28;20049;-72
2022/01/26 01:02:46;;;;;;;3.33;1.30;;;26.70;60.20;;;;;;4159557;28;20041;-70
2022/01/26 01:05:21;;;;;;;3.63;1.23;;;26.70;60.20;;;;;;4159057;28;20048;-69
2022/01/26 01:07:45;;;;;;;2.40;1.17;;;26.60;59.80;;;;;;4160157;28;20037;-71
2022/01/26 01:10:08;;;;;;;3.58;1.40;;;26.70;59.60;;;;;;4159014;28;20045;-71
2022/01/26 01:12:33;;;;;;;3.07;1.53;;;26.70;59.20;;;;;;4159846;28;20376;-71
2022/01/26 01:14:56;;;;;;;4.85;1.52;;;26.70;59.60;;;;;;4158369;28;20053;-73
2022/01/26 01:17:24;;;;;;;2.53;1.30;;;26.70;59.10;;;;;;4159686;28;20045;-72
2022/01/26 01:20:04;;;;;;;6.90;1.58;;;26.60;59.10;;;;;;4156923;28;20068;-71
2022/01/26 01:22:49;;;;;;;2.22;1.17;;;26.70;59.40;;;;;;4159077;28;20056;-71
2022/01/26 01:27:58;;;;;;;6.05;1.58;;;26.70;59.50;;;;;;4155179;28;20491;-71
2022/01/26 01:30:27;;;;;;;4.07;1.40;;;26.60;59.10;;;;;;4156088;28;20407;-69
2022/01/26 01:33:03;;;;;;;3.80;1.38;;;26.60;59.30;;;;;;4158253;28;20042;-69
2022/01/26 01:35:27;;;;;;;3.75;1.27;;;26.60;59.20;;;;;;4153958;28;20044;-71
2022/01/26 01:37:50;;;;;;;3.97;1.20;;;26.60;59.10;;;;;;4153543;28;20471;-70
2022/01/26 01:40:13;;;;;;;2.67;1.20;;;26.60;59.10;;;;;;4154809;28;20665;-72
2022/01/26 01:42:36;;;;;;;4.17;1.57;;;26.70;59.20;;;;;;4146171;28;20076;-69
2022/01/26 01:44:59;;;;;;;2.83;1.30;;;26.70;58.90;;;;;;4155283;28;20109;-75
2022/01/26 01:47:21;;;;;;;3.08;1.38;;;26.70;58.60;;;;;;4154617;28;20029;-74
2022/01/26 01:49:44;;;;;;;3.20;1.48;;;26.70;58.40;;;;;;4149447;28;20386;-78
2022/01/26 01:52:12;;;;;;;2.63;1.42;;;26.70;58.50;;;;;;4155170;28;20087;-76
2022/01/26 01:54:38;;;;;;;5.65;1.67;;;26.70;58.10;;;;;;4146838;28;20041;-76
2022/01/26 01:57:00;;;;;;;5.25;1.55;;;26.80;58.00;;;;;;4155002;28;20037;-76
2022/01/26 01:59:25;;;;;;;2.40;1.30;;;26.80;58.10;;;;;;4154636;28;20104;-74
2022/01/26 02:01:48;;;;;;;3.97;1.30;;;26.80;58.00;;;;;;4150905;28;20044;-73
2022/01/26 02:04:10;;;;;;;4.30;1.48;;;26.80;58.10;;;;;;4150656;28;20095;-77
2022/01/26 02:06:52;;;;;;;2.88;1.30;;;26.80;58.10;;;;;;4162745;28;20033;-75
2022/01/26 02:09:15;;;;;;;3.03;1.45;;;26.80;58.00;;;;;;4157095;28;20033;-74
2022/01/26 02:11:51;;;;;;;4.30;1.45;;;26.80;57.80;;;;;;4157437;28;20037;-76
2022/01/26 02:14:22;;;;;;;3.22;1.20;;;26.80;57.80;;;;;;4161927;28;20030;-78
2022/01/26 02:19:49;;;;;;;3.53;1.35;;;26.90;57.60;;;;;;4162566;28;20108;-75
2022/01/26 02:49:22;;;;;;;3.08;1.33;;;26.90;57.60;;;;;;4160666;28;20031;-74
2022/01/26 02:57:03;;;;;;;2.92;1.30;;;27.20;57.20;;;;;;4161930;28;20038;-74
2022/01/26 03:02:11;;;;;;;3.28;1.20;;;27.20;57.00;;;;;;4158047;28;20034;-74
2022/01/26 03:04:46;;;;;;;3.25;1.20;;;27.20;56.80;;;;;;4161739;28;20042;-73
2022/01/26 03:07:16;;;;;;;3.72;1.25;;;27.30;57.20;;;;;;4161759;28;20045;-73
2022/01/26 03:09:47;;;;;;;3.28;1.30;;;27.30;56.80;;;;;;4158387;28;20049;-76
2022/01/26 03:12:16;;;;;;;3.95;1.27;;;27.30;57.00;;;;;;4159112;28;20128;-74
2022/01/26 03:14:50;;;;;;;4.47;1.20;;;27.30;57.00;;;;;;4162214;28;20034;-74
2022/01/26 03:19:45;;;;;;;2.28;1.23;;;27.30;56.70;;;;;;4159681;28;20053;-76
2022/01/26 03:30:08;;;;;;;7.20;1.30;;;27.40;56.20;;;;;;4155772;28;20514;-73
2022/01/26 03:35:16;;;;;;;3.90;1.33;;;27.40;56.00;;;;;;4159780;28;20125;-75
2022/01/26 03:37:39;;;;;;;3.90;1.90;;;27.40;55.60;;;;;;4166660;28;20060;-77
2022/01/26 03:40:11;;;;;;;4.80;1.73;;;27.40;55.30;;;;;;4161675;28;20041;-73
2022/01/26 03:42:33;;;;;;;3.50;1.30;;;27.40;55.10;;;;;;4161781;28;20096;-76
2022/01/26 03:44:56;;;;;;;4.00;1.42;;;27.40;54.90;;;;;;4157903;28;20048;-73
2022/01/26 03:47:18;;;;;;;3.70;1.40;;;27.40;55.00;;;;;;4158325;28;20033;-75
2022/01/26 03:49:41;;;;;;;4.05;1.90;;;27.40;55.10;;;;;;4156772;28;20073;-75
2022/01/26 03:52:05;;;;;;;6.40;5.80;;;27.40;56.10;;;;;;4156111;28;20484;-75
2022/01/26 03:54:28;;;;;;;11.43;10.40;;;27.40;55.40;;;;;;4159399;28;20041;-70
2022/01/26 03:56:51;;;;;;;8.18;5.70;;;27.40;54.90;;;;;;4150593;28;20128;-71
2022/01/26 03:59:13;;;;;;;5.97;5.05;;;27.50;54.60;;;;;;4155113;28;20095;-71
2022/01/26 04:01:36;;;;;;;5.05;3.55;;;27.50;54.90;;;;;;4158290;28;20471;-70
2022/01/26 04:03:58;;;;;;;4.25;2.53;;;27.50;54.80;;;;;;4160696;28;20410;-70
2022/01/26 04:06:21;;;;;;;3.42;2.40;;;27.50;54.80;;;;;;4163416;28;20460;-71
2022/01/26 04:08:45;;;;;;;5.90;2.55;;;27.50;54.70;;;;;;4155279;28;20444;-70
2022/01/26 04:13:49;;;;;;;2.95;1.80;;;27.60;54.50;;;;;;4161951;28;20053;-70
2022/01/26 04:16:11;;;;;;;3.20;1.60;;;27.70;54.50;;;;;;4159562;28;20048;-72
2022/01/26 04:18:37;;;;;;;3.50;1.73;;;27.70;54.70;;;;;;4156310;28;20124;-72
2022/01/26 04:21:07;;;;;;;4.20;1.73;;;27.70;54.60;;;;;;4150931;28;20103;-71
2022/01/26 04:25:53;;;;;;;3.00;1.58;;;27.80;54.40;;;;;;4151323;28;20043;-69
2022/01/26 04:28:21;;;;;;;;;;;27.80;54.20;;;;;;4154456;28;20044;-70
2022/01/26 04:30:44;;;;;;;5.35;1.70;;;27.80;54.40;;;;;;4154168;28;19917;-72
2022/01/26 04:33:07;;;;;;;4.15;1.45;;;27.90;53.70;;;;;;4149806;28;20051;-70
2022/01/26 04:35:30;;;;;;;4.28;1.55;;;27.90;53.70;;;;;;4149471;28;20033;-70
2022/01/26 04:40:39;;;;;;;2.05;1.08;;;28.00;53.10;;;;;;4151007;28;20774;-72
2022/01/26 04:43:07;;;;;;;4.32;1.30;;;28.00;53.10;;;;;;4154435;28;20045;-71
2022/01/26 04:45:30;;;;;;;2.53;1.50;;;28.00;53.10;;;;;;4154279;28;20040;-69
2022/01/26 04:47:52;;;;;;;2.40;1.30;;;28.00;53.10;;;;;;4153601;28;20414;-71
2022/01/26 04:50:15;;;;;;;8.48;6.78;;;28.00;53.00;;;;;;4153933;28;20533;-69
2022/01/26 04:52:38;;;;;;;6.93;6.22;;;28.00;53.00;;;;;;4153024;28;20041;-70
2022/01/26 04:55:01;;;;;;;5.38;3.90;;;28.00;53.10;;;;;;4151181;28;20034;-71
2022/01/26 04:57:23;;;;;;;5.35;3.40;;;28.10;52.80;;;;;;4155860;28;20039;-70
2022/01/26 04:59:45;;;;;;;5.45;2.90;;;28.10;53.10;;;;;;4153008;28;21028;-70
2022/01/26 05:02:08;;;;;;;4.88;2.30;;;28.20;53.10;;;;;;4153135;28;20072;-69
2022/01/26 05:04:30;;;;;;;3.95;1.92;;;28.20;52.60;;;;;;4155316;28;20038;-70
2022/01/26 05:06:53;;;;;;;2.95;1.98;;;28.20;52.10;;;;;;4152780;28;20037;-76
2022/01/26 05:09:15;;;;;;;3.15;1.88;;;28.30;52.30;;;;;;4149891;28;20469;-74
2022/01/26 05:11:41;;;;;;;3.03;1.65;;;28.30;52.30;;;;;;4155413;28;20139;-75
2022/01/26 05:14:04;;;;;;;2.22;1.33;;;28.30;52.30;;;;;;4153580;28;20033;-73
2022/01/26 05:16:28;;;;;;;2.97;1.55;;;28.30;52.60;;;;;;4153654;28;20116;-74
2022/01/26 05:18:52;;;;;;;1.73;1.00;;;28.40;52.20;;;;;;4153049;28;20048;-74
2022/01/26 05:21:15;;;;;;;2.97;1.40;;;28.50;52.20;;;;;;4156074;28;20092;-74
2022/01/26 05:23:37;;;;;;;3.25;1.50;;;28.50;52.10;;;;;;4156682;28;20040;-73
2022/01/26 05:25:59;;;;;;;3.45;1.73;;;28.50;52.10;;;;;;4142196;28;20161;-73
2022/01/26 05:28:22;;;;;;;4.65;1.30;;;28.50;51.40;;;;;;4155737;28;20494;-76
2022/01/26 05:30:44;;;;;;;3.80;1.50;;;28.60;51.60;;;;;;4155736;28;20073;-72
2022/01/26 05:33:07;;;;;;;2.15;1.10;;;28.60;51.50;;;;;;4159134;28;20047;-74
2022/01/26 05:35:30;;;;;;;3.13;1.10;;;28.60;51.10;;;;;;4161025;28;20149;-72
2022/01/26 05:37:52;;;;;;;3.78;1.20;;;28.70;51.30;;;;;;4158807;28;20436;-73
2022/01/26 05:40:15;;;;;;;1.88;1.20;;;28.70;50.90;;;;;;4156786;28;20072;-72
2022/01/26 05:42:37;;;;;;;3.10;1.00;;;28.80;51.30;;;;;;4152288;28;20037;-72
2022/01/26 05:45:03;;;;;;;3.80;1.50;;;28.80;50.90;;;;;;4154744;28;20038;-72
2022/01/26 05:47:26;;;;;;;12.15;9.18;;;28.80;51.20;;;;;;4147356;28;20107;-71
2022/01/26 05:49:48;;;;;;;14.18;11.63;;;28.80;50.90;;;;;;4154519;28;20029;-73
2022/01/26 05:52:11;;;;;;;19.08;15.82;;;28.90;51.30;;;;;;4154765;28;20061;-72
2022/01/26 05:54:34;;;;;;;19.55;15.70;;;28.90;50.90;;;;;;4152931;28;20040;-74
2022/01/26 05:56:56;;;;;;;21.70;18.23;;;28.90;51.20;;;;;;4152281;28;20053;-72
2022/01/26 05:59:20;;;;;;;24.40;19.98;;;28.90;50.70;;;;;;4158054;28;20546;-72
2022/01/26 06:01:43;;;;;;;31.25;26.38;;;29.00;50.80;;;;;;4155495;28;20033;-69
2022/01/26 06:04:05;;;;;;;17.73;15.38;;;29.00;50.80;;;;;;4161747;28;20036;-70
2022/01/26 06:06:28;;;;;;;15.15;12.75;;;29.10;50.60;;;;;;4160744;28;20037;-69
2022/01/26 06:08:50;;;;;;;19.10;17.08;;;29.10;50.30;;;;;;4160111;28;20523;-70
2022/01/26 06:11:13;;;;;;;20.77;17.95;;;29.20;50.40;;;;;;4158821;28;20056;-69
2022/01/26 06:13:35;;;;;;;25.73;21.08;;;29.20;50.70;;;;;;4156870;28;20117;-70
2022/01/26 06:15:58;;;;;;;23.67;19.38;;;29.30;50.50;;;;;;4151383;28;20041;-69
2022/01/26 06:18:20;;;;;;;15.48;13.73;;;29.30;50.40;;;;;;4156377;28;20037;-71
2022/01/26 06:20:43;;;;;;;16.33;13.23;;;29.40;50.10;;;;;;4154969;28;20042;-71
2022/01/26 06:23:06;;;;;;;16.02;13.23;;;29.40;50.90;;;;;;4159181;28;20037;-70
2022/01/26 06:25:28;;;;;;;15.07;12.47;;;29.50;50.10;;;;;;4158484;28;20128;-70
2022/01/26 06:27:55;;;;;;;15.32;13.68;;;29.50;50.00;;;;;;4155478;28;20112;-70
2022/01/26 06:30:17;;;;;;;15.07;12.98;;;29.50;50.00;;;;;;4153423;28;20111;-72
2022/01/26 06:32:40;;;;;;;13.80;12.27;;;29.60;49.70;;;;;;4159075;28;20034;-70
2022/01/26 06:35:03;;;;;;;12.87;9.37;;;29.60;49.90;;;;;;4148639;28;20041;-70
2022/01/26 06:37:25;;;;;;;12.77;10.30;;;29.70;49.30;;;;;;4159504;28;20029;-70
2022/01/26 06:39:48;;;;;;;10.48;7.90;;;29.70;49.50;;;;;;4152686;28;20560;-70
2022/01/26 06:42:16;;;;;;;8.85;5.93;;;29.70;49.10;;;;;;4155068;28;20029;-71
2022/01/26 06:44:49;;;;;;;9.23;7.93;;;29.70;48.50;;;;;;4155572;28;20428;-72
2022/01/26 06:49:34;;;;;;;10.75;7.40;;;29.70;49.40;;;;;;4159486;28;20145;-70
2022/01/26 06:51:57;;;;;;;9.02;7.05;;;29.70;49.10;;;;;;4156831;28;20056;-72
2022/01/26 06:54:20;;;;;;;7.80;6.65;;;29.70;48.90;;;;;;4159917;28;20079;-72
2022/01/26 06:56:44;;;;;;;7.88;6.03;;;29.80;49.20;;;;;;4160777;28;20033;-70
2022/01/26 06:59:07;;;;;;;7.32;5.88;;;29.70;48.80;;;;;;4160476;28;20053;-71
2022/01/26 07:01:29;;;;;;;7.85;5.20;;;29.70;49.00;;;;;;4158670;28;20033;-71
2022/01/26 07:03:52;;;;;;;7.38;5.30;;;29.70;48.80;;;;;;4154845;28;20052;-69
2022/01/26 07:06:15;;;;;;;5.80;4.30;;;29.70;48.60;;;;;;4158775;28;20033;-72
2022/01/26 07:08:37;;;;;;;26.92;7.13;;;29.70;48.70;;;;;;4155789;28;20046;-71
2022/01/26 07:11:00;;;;;;;6.88;4.50;;;29.80;49.30;;;;;;4158351;28;20053;-71
2022/01/26 07:13:24;;;;;;;6.10;4.18;;;29.80;49.20;;;;;;4144491;28;20049;-70
2022/01/26 07:23:35;;;;;;;6.22;4.03;;;29.70;48.90;;;;;;4160449;28;20032;-72
2022/01/26 07:25:57;;;;;;;4.93;3.85;;;29.60;49.30;;;;;;4155998;28;20160;-70
2022/01/26 07:28:20;;;;;;;10.18;4.50;;;29.60;49.50;;;;;;4155978;28;20536;-70
2022/01/26 07:30:43;;;;;;;8.98;3.65;;;29.60;50.20;;;;;;4150975;28;20116;-69
2022/01/26 07:33:06;;;;;;;8.27;3.75;;;29.60;50.90;;;;;;4147978;28;20041;-70
2022/01/26 07:35:29;;;;;;;7.13;3.03;;;29.60;51.40;;;;;;4152928;28;20034;-69
2022/01/26 07:37:54;;;;;;;7.63;3.28;;;29.50;51.40;;;;;;4149987;28;20046;-74
2022/01/26 07:40:16;;;;;;;7.57;3.20;;;29.50;51.50;;;;;;4151247;28;20125;-73
2022/01/26 07:42:39;;;;;;;6.32;2.70;;;29.50;51.70;;;;;;4150550;28;20056;-74
2022/01/26 07:45:04;;;;;;;6.60;2.65;;;29.50;51.90;;;;;;4151119;28;20120;-71
2022/01/26 07:47:30;;;;;;;5.40;2.60;;;29.50;51.90;;;;;;4151771;28;20143;-72
2022/01/26 07:49:55;;;;;;;6.57;2.70;;;29.50;52.20;;;;;;4148790;28;20815;-74
2022/01/26 07:52:18;;;;;;;15.07;3.00;;;29.50;52.40;;;;;;4152474;28;20037;-75
2022/01/26 07:54:41;;;;;;;4.78;2.53;;;29.50;52.40;;;;;;4135935;28;20109;-74
2022/01/26 07:57:06;;;;;;;4.65;2.47;;;29.50;52.60;;;;;;4148956;28;20037;-75
2022/01/26 07:59:31;;;;;;;5.13;2.35;;;29.50;52.80;;;;;;4150012;28;21034;-72
2022/01/26 08:01:54;;;;;;;6.70;2.30;;;29.50;52.60;;;;;;4149307;28;20077;-72
2022/01/26 08:04:16;;;;;;;5.38;2.40;;;29.50;52.80;;;;;;4153953;28;20545;-72
2022/01/26 08:06:40;;;;;;;5.20;2.25;;;29.40;52.90;;;;;;4154790;28;20037;-74
2022/01/26 08:09:02;;;;;;;;;;;29.40;53.20;;;;;;4155121;28;20482;-73
2022/01/26 08:11:25;;;;;;;4.43;2.05;;;29.50;53.60;;;;;;4149743;28;19931;-74
2022/01/26 08:13:47;;;;;;;3.53;2.10;;;29.50;53.80;;;;;;4153346;28;20053;-76
2022/01/26 08:16:09;;;;;;;4.10;2.30;;;29.40;54.10;;;;;;4157222;28;20380;-72
2022/01/26 08:18:32;;;;;;;3.25;2.10;;;29.40;54.60;;;;;;4160735;28;20131;-74
2022/01/26 08:21:01;;;;;;;3.58;2.30;;;29.40;53.80;;;;;;4163753;28;20558;-75
2022/01/26 08:23:23;;;;;;;6.88;2.22;;;29.40;54.10;;;;;;4151890;28;20097;-79
2022/01/26 08:25:46;;;;;;;4.65;2.08;;;29.40;54.10;;;;;;4167063;28;20147;-77
2022/01/26 08:28:20;;;;;;;3.50;1.88;;;29.40;53.70;;;;;;4166108;28;20033;-78
2022/01/26 08:30:42;;;;;;;4.22;2.00;;;29.40;53.10;;;;;;4159825;28;20096;-71
2022/01/26 08:33:08;;;;;;;4.70;2.10;;;29.40;53.30;;;;;;4161231;28;20063;-70
2022/01/26 08:35:31;;;;;;;4.53;1.88;;;29.30;53.40;;;;;;4161941;28;20041;-71
2022/01/26 08:37:53;;;;;;;1.90;1.38;;;29.30;53.40;;;;;;4150461;28;20062;-71
2022/01/26 08:40:16;;;;;;;3.10;1.60;;;29.30;53.60;;;;;;4161070;28;20115;-70
2022/01/26 08:42:41;;;;;;;3.38;1.70;;;29.30;53.90;;;;;;4156583;28;20101;-68
2022/01/26 08:45:04;;;;;;;3.85;1.70;;;29.30;54.20;;;;;;4152128;28;20033;-66
2022/01/26 08:47:26;;;;;;;5.05;1.75;;;29.30;54.50;;;;;;4156044;28;20152;-70
2022/01/26 08:49:49;;;;;;;3.45;1.88;;;29.30;54.30;;;;;;4159327;28;20045;-69
2022/01/26 08:52:12;;;;;;;6.60;2.03;;;29.30;54.60;;;;;;4159495;28;20034;-72
2022/01/26 08:54:34;;;;;;;3.08;1.60;;;29.30;54.70;;;;;;4160219;28;20044;-72
2022/01/26 08:56:56;;;;;;;3.55;1.23;;;29.30;54.70;;;;;;4157145;28;20045;-70
2022/01/26 08:59:20;;;;;;;3.88;1.48;;;29.20;54.60;;;;;;4151664;28;20052;-70
2022/01/26 09:01:42;;;;;;;3.95;1.70;;;29.30;54.90;;;;;;4146698;28;20101;-72
2022/01/26 09:04:06;;;;;;;2.72;1.30;;;29.20;53.70;;;;;;4150953;28;20030;-73
2022/01/26 09:06:28;;;;;;;2.53;1.27;;;29.20;53.40;;;;;;4148825;28;20033;-72
2022/01/26 09:09:00;;;;;;;6.07;1.95;;;29.20;53.20;;;;;;4153939;28;20045;-72
2022/01/26 09:11:23;;;;;;;7.15;1.88;;;29.10;53.50;;;;;;4154521;28;20485;-71
2022/01/26 09:13:46;;;;;;;3.72;1.65;;;29.10;54.00;;;;;;4140150;28;20153;-73
2022/01/26 09:16:09;;;;;;;5.57;1.60;;;29.20;54.40;;;;;;4133616;28;20038;-73
2022/01/26 09:21:03;;;;;;;3.55;1.27;;;29.10;54.60;;;;;;4147964;28;20732;-70
2022/01/26 09:23:26;;;;;;;6.45;1.60;;;29.20;54.90;;;;;;4149267;28;20041;-71
2022/01/26 09:25:48;;;;;;;3.77;1.23;;;29.20;54.90;;;;;;4144636;28;20360;-71
2022/01/26 09:28:10;;;;;;;5.78;1.60;;;29.10;54.90;;;;;;4144331;28;20036;-72
2022/01/26 09:30:33;;;;;;;8.40;1.30;;;29.10;55.00;;;;;;4149933;28;20091;-70
2022/01/26 09:32:58;;;;;;;4.15;1.45;;;29.20;55.20;;;;;;4145349;28;20159;-71
2022/01/26 09:35:21;;;;;;;3.78;1.52;;;29.20;55.30;;;;;;4151044;28;20069;-74
2022/01/26 09:37:43;;;;;;;5.68;1.50;;;29.20;55.10;;;;;;4150577;28;20047;-73
2022/01/26 09:40:07;;;;;;;4.05;1.60;;;29.20;55.10;;;;;;4152082;28;20050;-70
2022/01/26 09:42:32;;;;;;;8.02;1.63;;;29.20;55.10;;;;;;4152397;28;20196;-72
2022/01/26 09:44:54;;;;;;;3.40;1.20;;;29.20;55.20;;;;;;4151405;28;20443;-71
2022/01/26 09:47:17;;;;;;;3.97;1.20;;;29.20;55.20;;;;;;4150489;28;20045;-71
2022/01/26 09:49:40;;;;;;;9.57;1.30;;;29.20;55.20;;;;;;4151121;28;20048;-70
2022/01/26 09:52:22;;;;;;;2.65;1.20;;;29.20;55.20;;;;;;4152623;28;20379;-70
2022/01/26 09:54:44;;;;;;;3.20;0.77;;;29.20;55.20;;;;;;4150465;28;20061;-70
2022/01/26 09:57:07;;;;;;;3.53;1.02;;;29.20;55.10;;;;;;4152893;28;20045;-70
2022/01/26 09:59:32;;;;;;;8.60;1.38;;;29.20;55.10;;;;;;4155931;28;20048;-73
2022/01/26 10:01:55;;;;;;;4.57;1.17;;;29.20;55.30;;;;;;4153526;28;20592;-72
2022/01/26 10:04:21;;;;;;;3.28;1.15;;;29.20;55.30;;;;;;4157493;28;20101;-73
2022/01/26 10:06:43;;;;;;;3.50;1.00;;;29.20;55.40;;;;;;4159565;28;20054;-74
2022/01/26 10:17:35;;;;;;;2.75;0.90;;;29.20;55.20;;;;;;4157826;28;20037;-72
2022/01/26 10:20:06;;;;;;;3.42;0.82;;;29.20;55.40;;;;;;4155204;28;20041;-73
2022/01/26 10:22:31;;;;;;;2.25;0.88;;;29.20;55.30;;;;;;4151708;28;20196;-72
2022/01/26 10:25:07;;;;;;;1.55;0.95;;;29.20;55.40;;;;;;4156037;28;20708;-71
2022/01/26 10:27:40;;;;;;;2.10;0.90;;;29.20;55.30;;;;;;4154523;28;20100;-71
2022/01/26 10:30:06;;;;;;;2.47;0.95;;;29.20;55.30;;;;;;4152651;28;20404;-71
2022/01/26 10:32:37;;;;;;;2.97;1.05;;;29.10;55.20;;;;;;4149944;28;20212;-69
2022/01/26 10:35:04;;;;;;;4.50;1.23;;;29.20;55.40;;;;;;4150902;28;20152;-71
2022/01/26 10:37:26;;;;;;;5.47;1.13;;;29.20;55.40;;;;;;4153135;28;20640;-68
2022/01/26 10:39:52;;;;;;;4.43;1.27;;;29.10;55.30;;;;;;4153962;28;20053;-69
2022/01/26 10:42:19;;;;;;;5.72;1.10;;;29.10;55.10;;;;;;4152635;28;20502;-68
2022/01/26 10:47:25;;;;;;;4.10;1.00;;;29.20;55.10;;;;;;4150779;28;20109;-70
2022/01/26 10:52:22;;;;;;;1.90;1.00;;;29.20;54.90;;;;;;4151360;28;20044;-69
2022/01/26 10:54:45;;;;;;;3.42;1.27;;;29.20;55.10;;;;;;4149943;28;20049;-69
2022/01/26 10:57:10;;;;;;;2.80;1.03;;;29.20;55.00;;;;;;4138570;28;20049;-68
2022/01/26 10:59:43;;;;;;;5.93;1.10;;;29.10;54.90;;;;;;4148984;28;20050;-68
2022/01/26 11:02:10;;;;;;;2.72;1.13;;;29.10;54.90;;;;;;4150639;28;20048;-68
2022/01/26 11:04:35;;;;;;;4.72;0.90;;;29.10;55.00;;;;;;4153080;28;20079;-69
2022/01/26 11:06:58;;;;;;;1.27;0.68;;;29.10;55.00;;;;;;4155400;28;20041;-70
2022/01/26 11:09:25;;;;;;;2.10;1.07;;;29.10;54.90;;;;;;4149950;28;20124;-70
2022/01/26 11:11:58;;;;;;;2.90;1.15;;;29.10;55.00;;;;;;4150821;28;20122;-71
2022/01/26 11:14:22;;;;;;;1.85;1.10;;;29.10;55.00;;;;;;4149333;28;20523;-69
2022/01/26 11:17:01;;;;;;;2.83;0.90;;;29.10;55.00;;;;;;4154904;28;20143;-69
2022/01/26 11:19:23;;;;;;;2.70;1.10;;;29.10;55.00;;;;;;4151877;28;20130;-71
2022/01/26 11:21:46;;;;;;;3.33;1.40;;;29.10;55.00;;;;;;4136752;28;20155;-69
2022/01/26 11:24:24;;;;;;;3.08;0.80;;;29.10;55.10;;;;;;4150963;28;20124;-69
2022/01/26 11:26:49;;;;;;;1.85;1.00;;;29.10;55.20;;;;;;4155578;28;20049;-68
2022/01/26 11:29:25;;;;;;;2.90;0.90;;;29.10;55.20;;;;;;4153040;28;20132;-69
2022/01/26 11:31:59;;;;;;;3.60;1.00;;;29.00;55.20;;;;;;4153696;28;20037;-73
2022/01/26 11:34:21;;;;;;;;;;;29.00;55.20;;;;;;4155249;28;20046;-69
2022/01/26 11:36:44;;;;;;;12.40;2.00;;;29.10;55.70;;;;;;4151986;28;19940;-69
2022/01/26 11:45:15;;;;;;;8.20;1.50;;;29.10;55.70;;;;;;4093932;28;20106;-75
2022/01/26 11:47:45;;;;;;;6.22;1.60;;;29.00;55.70;;;;;;4089653;28;20122;-70
2022/01/26 11:50:12;;;;;;;5.10;1.33;;;29.00;55.90;;;;;;4135106;28;20109;-69
2022/01/26 11:52:38;;;;;;;8.02;1.20;;;29.00;55.90;;;;;;4155023;28;20524;-70
2022/01/26 11:55:05;;;;;;;7.72;1.50;;;29.00;56.10;;;;;;4155858;28;20121;-67
2022/01/26 11:57:43;;;;;;;5.22;1.30;;;29.00;56.20;;;;;;4149276;28;20080;-65
2022/01/26 12:00:11;;;;;;;4.10;1.27;;;28.90;56.10;;;;;;4149373;28;20050;-69
2022/01/26 12:05:06;;;;;;;5.25;1.35;;;29.00;56.30;;;;;;4153745;28;20112;-69
2022/01/26 12:07:29;;;;;;;3.08;1.13;;;29.00;56.30;;;;;;4156101;28;20139;-68
2022/01/26 12:09:52;;;;;;;3.67;1.15;;;29.00;56.30;;;;;;4140014;28;20164;-70
2022/01/26 12:12:21;;;;;;;4.00;1.30;;;28.90;56.30;;;;;;4156685;28;20053;-69
2022/01/26 12:14:46;;;;;;;3.80;1.17;;;28.90;56.30;;;;;;4157476;28;20083;-68
2022/01/26 12:17:13;;;;;;;3.85;1.00;;;28.90;56.30;;;;;;4154796;28;20116;-70
2022/01/26 12:20:03;;;;;;;4.18;1.13;;;28.90;56.20;;;;;;4152736;28;20414;-68
2022/01/26 12:36:19;;;;;;;4.45;1.08;;;28.80;56.60;;;;;;4158150;28;20045;-67
2022/01/26 12:38:45;;;;;;;6.07;1.25;;;28.80;56.00;;;;;;4160377;28;20045;-69
2022/01/26 12:41:27;;;;;;;1.27;0.82;;;28.80;55.90;;;;;;4160833;28;20044;-70
2022/01/26 12:43:53;;;;;;;1.52;0.77;;;28.80;55.90;;;;;;4156825;28;20202;-69
2022/01/26 12:46:19;;;;;;;2.97;0.90;;;28.80;56.00;;;;;;4157484;28;20033;-67
2022/01/26 12:48:47;;;;;;;6.28;0.90;;;28.80;55.90;;;;;;4155956;28;20120;-68
2022/01/26 12:51:12;;;;;;;3.25;1.00;;;28.80;56.00;;;;;;4158650;28;20077;-69
2022/01/26 12:53:36;;;;;;;3.95;1.00;;;28.70;55.90;;;;;;4155873;28;20084;-70
2022/01/26 12:56:01;;;;;;;2.63;0.75;;;28.70;56.60;;;;;;4152388;28;20152;-69
2022/01/26 12:58:35;;;;;;;2.17;0.90;;;28.70;56.20;;;;;;4158155;28;20066;-71
2022/01/26 13:01:11;;;;;;;2.03;0.90;;;28.70;56.70;;;;;;4152231;28;20088;-68
2022/01/26 13:03:41;;;;;;;2.53;1.00;;;28.70;56.20;;;;;;4149817;28;20455;-68
2022/01/26 13:06:14;;;;;;;2.65;1.10;;;28.70;56.30;;;;;;4152616;28;20038;-68
2022/01/26 13:08:44;;;;;;;3.20;1.05;;;28.70;56.40;;;;;;4154198;28;20045;-68
2022/01/26 13:11:06;;;;;;;11.25;1.20;;;28.70;56.50;;;;;;4151181;28;20053;-68
2022/01/26 13:13:34;;;;;;;0.98;0.70;;;28.70;56.50;;;;;;4153195;28;20120;-68
2022/01/26 13:16:08;;;;;;;2.75;0.80;;;28.60;56.60;;;;;;4155923;28;20056;-71
2022/01/26 13:19:06;;;;;;;3.22;0.90;;;28.60;56.60;;;;;;4151808;28;20048;-69
2022/01/26 13:24:16;;;;;;;4.43;1.40;;;28.60;56.60;;;;;;4155591;28;20080;-69
2022/01/26 13:27:34;;;;;;;3.53;1.00;;;28.60;56.30;;;;;;4157995;28;20044;-73
2022/01/26 13:29:40;;;;;;;6.15;1.20;;;28.60;56.20;;;;;;4158508;28;20076;-72
2022/01/26 13:32:40;;;;;;;6.15;0.98;;;28.50;56.10;;;;;;4158109;28;20166;-73
2022/01/26 13:45:41;;;;;;;4.55;1.15;;;28.50;56.20;;;;;;4156234;28;20033;-74
2022/01/26 13:55:43;;;;;;;4.35;1.10;;;28.40;56.40;;;;;;4152611;28;20580;-74
2022/01/26 14:00:56;;;;;;;3.53;1.10;;;28.40;56.40;;;;;;4149406;28;20152;-74
2022/01/26 14:03:21;;;;;;;4.10;1.10;;;28.40;56.40;;;;;;4155337;28;20052;-75
2022/01/26 14:05:46;;;;;;;3.00;1.13;;;28.40;56.50;;;;;;4154352;28;20041;-73
2022/01/26 14:08:09;;;;;;;1.83;0.90;;;28.40;56.40;;;;;;4150556;28;20048;-74
2022/01/26 14:10:32;;;;;;;3.97;1.10;;;28.40;56.40;;;;;;4150828;28;20534;-73
2022/01/26 14:13:00;;;;;;;3.13;1.08;;;28.40;56.50;;;;;;4155912;28;20052;-76
2022/01/26 14:15:34;;;;;;;2.92;0.77;;;28.40;56.40;;;;;;4156015;28;20148;-76
2022/01/26 14:18:08;;;;;;;4.68;0.90;;;28.40;56.40;;;;;;4154625;28;20494;-75
2022/01/26 14:20:45;;;;;;;2.08;0.90;;;28.30;56.40;;;;;;4157214;28;20061;-67
2022/01/26 14:23:19;;;;;;;2.60;0.93;;;28.30;56.50;;;;;;4157770;28;20041;-72
2022/01/26 14:25:45;;;;;;;1.60;0.70;;;28.30;56.50;;;;;;4154922;28;20428;-70
2022/01/26 14:28:09;;;;;;;2.30;0.60;;;28.30;56.70;;;;;;4153341;28;20036;-69
2022/01/26 15:29:54;;;;;;;3.28;1.00;;;28.00;56.20;;;;;;4154269;28;20041;-67
2022/01/26 15:31:02;;;;;;;4.05;1.13;;;28.00;55.60;;;;;;4156720;28;20049;-69
2022/01/26 15:33:31;;;;;;;3.25;1.10;;;28.00;56.20;;;;;;4155472;28;21757;-68
2022/01/26 15:41:13;;;;;;;3.67;0.90;;;27.90;56.20;;;;;;4155928;28;20057;-74
2022/01/26 15:43:47;;;;;;;2.35;1.08;;;27.90;56.20;;;;;;4095689;28;20053;-73
2022/01/26 15:49:22;;;;;;;3.42;1.00;;;27.90;56.40;;;;;;4152607;28;20049;-73
2022/01/26 16:20:48;;;;;;;3.42;1.20;;;27.90;57.40;;;;;;4154454;28;20180;-72
2022/01/26 16:52:44;;;;;;;3.78;0.90;;;27.70;57.50;;;;;;4156785;28;20403;-73
2022/01/26 17:11:06;;;;;;;16.20;2.40;;;27.60;57.80;;;;;;4162726;28;20037;-75
2022/01/26 17:55:12;;;;;;;3.40;1.27;;;27.40;57.10;;;;;;4099257;28;20417;-65
2022/01/26 18:15:47;;;;;;;291.17;62.60;;;27.20;57.20;;;;;;4153517;28;20033;-66
2022/01/26 18:38:59;;;;;;;64.05;17.92;;;26.90;57.00;;;;;;4154116;28;20037;-66
2022/01/26 18:49:22;;;;;;;37.38;11.50;;;26.90;57.10;;;;;;4154238;28;20441;-66
2022/01/26 18:52:05;;;;;;;27.38;9.63;;;26.80;57.10;;;;;;4152920;28;20041;-66
2022/01/26 18:54:38;;;;;;;30.02;9.40;;;26.80;57.10;;;;;;4155614;28;20041;-66
2022/01/26 18:57:04;;;;;;;22.10;8.10;;;26.80;57.10;;;;;;4158072;28;20045;-66
2022/01/26 18:59:27;;;;;;;23.05;7.15;;;26.70;57.10;;;;;;4159419;28;20479;-66